Time;durP1;ratioP1;P1;durP2;ratioP2;P2;SDS_P1;SDS_P2;PMS_P1;PMS_P2;Temp;Humidity;BMP_temperature;BMP_pressure;BME280_temperature;BME280_humidity;BME280_pressure;Samples;Min_cycle;Max_cycle;Signal;HPM_P1;HPM_P2
2023/10/04 00:02:07;;;;;;;7.10;2.67;;;12.70;99.90;;;;;;5070183;28;20550;-48
2023/10/04 00:04:34;;;;;;;3.40;2.23;;;12.70;99.90;;;;;;5070822;28;20238;-43
2023/10/04 00:07:03;;;;;;;6.37;2.33;;;12.80;99.90;;;;;;5081468;28;20221;-49
2023/10/04 00:09:31;;;;;;;10.13;2.30;;;12.80;99.90;;;;;;5075381;28;20242;-45
2023/10/04 00:11:59;;;;;;;7.20;2.13;;;12.80;99.90;;;;;;5077122;28;20514;-47
2023/10/04 00:14:26;;;;;;;11.97;2.90;;;12.80;99.90;;;;;;5080071;28;20190;-45
2023/10/04 00:16:55;;;;;;;6.20;1.80;;;12.80;99.90;;;;;;5077856;28;20611;-46
2023/10/04 00:19:22;;;;;;;6.33;1.90;;;12.80;99.90;;;;;;5064014;28;20310;-44
2023/10/04 00:21:49;;;;;;;6.50;2.27;;;12.80;99.90;;;;;;5077136;28;20194;-46
2023/10/04 00:24:16;;;;;;;7.13;2.13;;;12.80;99.90;;;;;;5080416;28;20289;-47
2023/10/04 00:26:44;;;;;;;6.83;2.10;;;12.80;99.90;;;;;;5080106;28;20267;-45
2023/10/04 00:29:11;;;;;;;3.67;2.00;;;12.80;99.90;;;;;;5072589;28;20271;-48
2023/10/04 00:31:38;;;;;;;6.87;2.13;;;12.80;99.90;;;;;;5082399;28;20202;-44
2023/10/04 00:34:08;;;;;;;7.47;1.90;;;12.80;99.90;;;;;;5071098;28;20263;-47
2023/10/04 00:36:35;;;;;;;3.87;1.60;;;12.80;99.90;;;;;;5071934;28;20212;-47
2023/10/04 00:39:03;;;;;;;10.90;2.83;;;12.80;99.90;;;;;;5067496;28;20213;-48
2023/10/04 00:41:31;;;;;;;9.63;1.80;;;12.80;99.90;;;;;;5084589;28;20958;-48
2023/10/04 00:44:01;;;;;;;9.13;2.00;;;12.80;99.90;;;;;;5082848;28;20202;-49
2023/10/04 00:46:29;;;;;;;5.47;2.23;;;12.80;99.90;;;;;;5081099;28;21033;-46
2023/10/04 00:48:57;;;;;;;3.70;1.20;;;12.90;99.90;;;;;;5079820;28;20214;-46
2023/10/04 00:51:26;;;;;;;5.03;1.60;;;12.90;99.90;;;;;;5071126;28;20210;-44
2023/10/04 00:53:53;;;;;;;4.83;2.10;;;12.90;99.90;;;;;;5079977;28;20200;-44
2023/10/04 00:56:20;;;;;;;7.00;1.50;;;12.90;99.90;;;;;;5077771;28;20199;-44
2023/10/04 00:58:47;;;;;;;5.27;1.70;;;12.90;99.90;;;;;;5066371;28;20225;-46
2023/10/04 01:01:15;;;;;;;5.77;1.67;;;12.90;99.90;;;;;;5065166;28;20198;-49
2023/10/04 01:03:45;;;;;;;3.13;1.70;;;12.90;99.90;;;;;;5083070;28;20243;-47
2023/10/04 01:06:12;;;;;;;4.43;1.50;;;12.90;99.90;;;;;;5052324;28;20571;-49
2023/10/04 01:08:41;;;;;;;5.07;1.60;;;12.90;99.90;;;;;;5069761;28;20751;-44
2023/10/04 01:11:08;;;;;;;3.93;1.40;;;12.90;99.90;;;;;;5081781;28;20669;-46
2023/10/04 01:13:36;;;;;;;6.70;1.73;;;12.90;99.90;;;;;;5081651;28;20258;-44
2023/10/04 01:16:06;;;;;;;6.27;2.00;;;12.90;99.90;;;;;;5085318;28;20194;-47
2023/10/04 01:18:36;;;;;;;7.03;2.10;;;12.90;99.90;;;;;;5057288;28;20348;-48
2023/10/04 01:21:02;;;;;;;6.83;1.80;;;12.80;99.90;;;;;;5060554;28;20259;-45
2023/10/04 01:23:31;;;;;;;2.60;2.10;;;12.80;99.90;;;;;;5070703;28;20210;-47
2023/10/04 01:25:57;;;;;;;4.23;1.43;;;12.80;99.90;;;;;;5077194;28;20198;-50
2023/10/04 01:28:28;;;;;;;8.97;1.90;;;12.80;99.90;;;;;;5063081;28;20283;-48
2023/10/04 01:30:56;;;;;;;5.23;1.83;;;12.80;99.90;;;;;;5065404;28;20190;-46
2023/10/04 01:33:23;;;;;;;4.77;1.37;;;12.70;99.90;;;;;;5085445;28;20580;-53
2023/10/04 01:35:53;;;;;;;10.03;2.00;;;12.70;99.90;;;;;;5062847;28;20927;-48
2023/10/04 01:38:24;;;;;;;7.37;1.60;;;12.70;99.90;;;;;;5077238;28;20727;-48
2023/10/04 01:40:53;;;;;;;4.37;1.40;;;12.70;99.90;;;;;;5082658;28;20190;-49
2023/10/04 01:43:20;;;;;;;3.93;1.23;;;12.80;99.90;;;;;;5086330;28;20202;-47
2023/10/04 01:45:50;;;;;;;7.23;1.47;;;12.70;99.90;;;;;;5053107;28;20194;-45
2023/10/04 01:48:17;;;;;;;4.63;1.37;;;12.70;99.90;;;;;;5080504;28;21598;-45
2023/10/04 01:50:48;;;;;;;6.57;1.50;;;12.70;99.90;;;;;;5074980;28;20293;-47
2023/10/04 01:53:15;;;;;;;3.20;1.50;;;12.70;99.90;;;;;;5047988;28;20687;-45
2023/10/04 01:55:42;;;;;;;4.53;1.63;;;12.70;99.90;;;;;;5080575;28;20210;-49
2023/10/04 01:58:12;;;;;;;3.87;1.63;;;12.70;99.90;;;;;;5067806;28;20214;-45
2023/10/04 02:00:39;;;;;;;4.17;1.20;;;12.70;99.90;;;;;;5066784;28;20822;-49
2023/10/04 02:03:07;;;;;;;5.33;1.50;;;12.70;99.90;;;;;;5069950;28;20202;-45
2023/10/04 02:05:37;;;;;;;4.90;1.50;;;12.70;99.90;;;;;;5054461;28;20247;-50
2023/10/04 02:08:12;;;;;;;8.40;1.57;;;12.70;99.90;;;;;;5075439;28;20267;-50
2023/10/04 02:10:41;;;;;;;5.77;1.63;;;12.70;99.90;;;;;;5067395;28;20201;-48
2023/10/04 02:13:09;;;;;;;7.53;1.53;;;12.70;99.90;;;;;;5081010;28;20222;-46
2023/10/04 02:15:37;;;;;;;5.23;1.60;;;12.70;99.90;;;;;;5066602;28;20205;-46
2023/10/04 02:18:05;;;;;;;11.07;2.23;;;12.70;99.90;;;;;;5081017;28;20210;-52
2023/10/04 02:20:34;;;;;;;6.70;1.70;;;12.70;99.90;;;;;;5093166;28;20182;-45
2023/10/04 02:23:03;;;;;;;6.73;1.67;;;12.70;99.90;;;;;;5060013;28;20209;-50
2023/10/04 02:25:29;;;;;;;5.00;2.03;;;12.70;99.90;;;;;;5075875;28;20704;-46
2023/10/04 02:28:01;;;;;;;4.87;1.70;;;12.70;99.90;;;;;;5084328;28;20232;-47
2023/10/04 02:30:27;;;;;;;7.33;2.27;;;12.70;99.90;;;;;;5075704;28;20194;-47
2023/10/04 02:32:57;;;;;;;6.23;1.40;;;12.70;99.90;;;;;;5080317;28;20203;-45
2023/10/04 02:35:26;;;;;;;8.80;1.70;;;12.70;99.90;;;;;;5060583;28;20193;-51
2023/10/04 02:37:58;;;;;;;5.07;1.93;;;12.60;99.90;;;;;;5065636;28;20221;-48
2023/10/04 02:40:27;;;;;;;7.80;1.90;;;12.60;99.90;;;;;;5052075;28;20220;-47
2023/10/04 02:42:58;;;;;;;10.17;2.13;;;12.60;99.90;;;;;;5083181;28;20668;-46
2023/10/04 02:45:26;;;;;;;3.70;1.50;;;12.60;99.90;;;;;;5056946;28;20309;-44
2023/10/04 02:47:54;;;;;;;8.27;1.77;;;12.60;99.90;;;;;;5074637;28;20305;-46
2023/10/04 02:50:24;;;;;;;4.03;1.87;;;12.60;99.90;;;;;;5081233;28;20190;-45
2023/10/04 02:52:52;;;;;;;6.17;1.47;;;12.60;99.90;;;;;;5079175;28;20217;-47
2023/10/04 02:55:22;;;;;;;7.67;1.60;;;12.60;99.90;;;;;;5070374;28;20202;-45
2023/10/04 02:57:51;;;;;;;8.03;2.13;;;12.60;99.90;;;;;;5073106;28;20210;-45
2023/10/04 03:00:19;;;;;;;4.87;1.63;;;12.60;99.90;;;;;;5058274;28;20217;-48
2023/10/04 03:02:52;;;;;;;6.27;1.80;;;12.60;99.90;;;;;;5066494;28;20593;-45
2023/10/04 03:05:24;;;;;;;5.57;1.93;;;12.60;99.90;;;;;;5064494;28;20194;-45
2023/10/04 03:07:52;;;;;;;7.10;2.03;;;12.60;99.90;;;;;;5060157;28;20224;-45
2023/10/04 03:10:32;;;;;;;6.50;1.83;;;12.60;99.90;;;;;;5060798;28;20210;-45
2023/10/04 03:13:01;;;;;;;6.17;1.80;;;12.60;99.90;;;;;;5065545;28;20189;-49
2023/10/04 03:15:30;;;;;;;4.47;1.80;;;12.60;99.90;;;;;;5063992;28;20206;-45
2023/10/04 03:17:59;;;;;;;7.93;1.60;;;12.60;99.90;;;;;;5064348;28;20220;-47
2023/10/04 03:20:30;;;;;;;5.37;1.70;;;12.60;99.90;;;;;;5064172;28;20919;-45
2023/10/04 03:23:00;;;;;;;7.53;1.90;;;12.60;99.90;;;;;;5059626;28;20202;-49
2023/10/04 03:25:27;;;;;;;7.43;1.90;;;12.60;99.90;;;;;;5053790;28;20206;-47
2023/10/04 03:27:57;;;;;;;5.57;2.07;;;12.60;99.90;;;;;;5069757;28;20988;-46
2023/10/04 03:30:24;;;;;;;4.20;1.37;;;12.60;99.90;;;;;;5070098;28;20749;-47
2023/10/04 03:32:52;;;;;;;7.50;1.80;;;12.60;99.90;;;;;;5057178;28;20217;-46
2023/10/04 03:35:23;;;;;;;9.27;1.93;;;12.60;99.90;;;;;;5080323;28;21001;-47
2023/10/04 03:37:54;;;;;;;8.77;2.27;;;12.60;99.90;;;;;;5079057;28;20202;-52
2023/10/04 03:40:24;;;;;;;7.00;2.37;;;12.60;99.90;;;;;;5070040;28;20793;-45
2023/10/04 03:42:51;;;;;;;7.83;1.80;;;12.60;99.90;;;;;;5073106;28;20205;-51
2023/10/04 03:45:20;;;;;;;8.17;2.07;;;12.60;99.90;;;;;;5081874;28;21208;-49
2023/10/04 03:47:50;;;;;;;7.37;1.97;;;12.60;99.90;;;;;;5067254;28;20707;-48
2023/10/04 03:50:19;;;;;;;7.13;2.40;;;12.60;99.90;;;;;;5069574;28;20225;-49
2023/10/04 03:52:48;;;;;;;8.33;1.80;;;12.60;99.90;;;;;;5067088;28;20214;-44
2023/10/04 03:55:17;;;;;;;5.27;1.47;;;12.60;99.90;;;;;;5077756;28;20870;-47
2023/10/04 03:57:45;;;;;;;6.17;1.83;;;12.60;99.90;;;;;;5063725;28;20218;-47
2023/10/04 04:00:17;;;;;;;8.90;1.83;;;12.60;99.90;;;;;;5067381;28;20269;-52
2023/10/04 04:02:44;;;;;;;11.00;2.00;;;12.60;99.90;;;;;;5061786;28;20206;-45
2023/10/04 04:05:14;;;;;;;8.27;1.93;;;12.60;99.90;;;;;;5084306;28;20186;-45
2023/10/04 04:07:41;;;;;;;7.17;1.87;;;12.60;99.90;;;;;;5064403;28;20309;-45
2023/10/04 04:10:11;;;;;;;5.53;1.73;;;12.60;99.90;;;;;;5056452;28;20194;-47
2023/10/04 04:12:40;;;;;;;4.20;1.63;;;12.60;99.90;;;;;;5083085;28;20193;-44
2023/10/04 04:15:10;;;;;;;5.50;1.90;;;12.60;99.90;;;;;;5055399;28;20194;-50
2023/10/04 04:17:39;;;;;;;8.53;2.20;;;12.60;99.90;;;;;;5073313;28;20196;-48
2023/10/04 04:20:14;;;;;;;10.33;1.80;;;12.60;99.90;;;;;;5057364;28;20202;-50
2023/10/04 04:22:47;;;;;;;5.17;1.60;;;12.50;99.90;;;;;;5060216;28;20250;-45
2023/10/04 04:25:15;;;;;;;4.73;1.70;;;12.50;99.90;;;;;;5052470;28;20200;-44
2023/10/04 04:27:45;;;;;;;5.33;1.70;;;12.50;99.90;;;;;;5095335;28;20233;-45
2023/10/04 04:30:18;;;;;;;7.60;2.07;;;12.50;99.90;;;;;;5052272;28;20202;-46
2023/10/04 04:32:47;;;;;;;7.27;1.70;;;12.50;99.90;;;;;;5071908;28;20189;-44
2023/10/04 04:35:22;;;;;;;5.03;1.90;;;12.50;99.90;;;;;;5066825;28;20387;-45
2023/10/04 04:37:54;;;;;;;6.70;1.60;;;12.50;99.90;;;;;;5066296;28;20214;-48
2023/10/04 04:40:26;;;;;;;7.40;1.80;;;12.50;99.90;;;;;;5052775;28;20241;-45
2023/10/04 04:43:01;;;;;;;5.77;2.03;;;12.60;99.90;;;;;;5061821;28;20247;-48
2023/10/04 04:45:29;;;;;;;6.43;2.30;;;12.50;99.90;;;;;;5085474;28;20205;-44
2023/10/04 04:47:57;;;;;;;4.87;1.60;;;12.60;99.90;;;;;;5055339;28;20223;-51
2023/10/04 04:50:25;;;;;;;6.97;2.10;;;12.60;99.90;;;;;;5080202;28;20194;-44
2023/10/04 04:52:53;;;;;;;3.23;1.60;;;12.60;99.90;;;;;;5067253;28;20720;-49
2023/10/04 04:55:26;;;;;;;7.70;1.67;;;12.60;99.90;;;;;;5069785;28;20202;-47
2023/10/04 04:57:56;;;;;;;10.00;2.63;;;12.60;99.90;;;;;;5065376;28;20873;-49
2023/10/04 05:00:33;;;;;;;10.60;2.40;;;12.60;99.90;;;;;;5054621;28;20288;-44
2023/10/04 05:03:02;;;;;;;8.57;1.90;;;12.60;99.90;;;;;;5060196;28;21058;-44
2023/10/04 05:05:29;;;;;;;6.57;1.73;;;12.60;99.90;;;;;;5063417;28;20224;-46
2023/10/04 05:07:56;;;;;;;3.83;1.40;;;12.60;99.90;;;;;;5078380;28;20242;-47
2023/10/04 05:10:25;;;;;;;12.53;2.53;;;12.60;99.90;;;;;;5075077;28;20864;-47
2023/10/04 05:12:55;;;;;;;7.13;1.70;;;12.60;99.90;;;;;;5079732;28;20692;-46
2023/10/04 05:15:24;;;;;;;4.90;1.80;;;12.60;99.90;;;;;;5078561;28;20229;-46
2023/10/04 05:17:51;;;;;;;8.10;1.90;;;12.70;99.90;;;;;;5079269;28;20584;-49
2023/10/04 05:20:19;;;;;;;4.70;1.90;;;12.70;99.90;;;;;;5075206;28;20217;-48
2023/10/04 05:22:46;;;;;;;7.77;2.33;;;12.70;99.90;;;;;;5083053;28;20232;-48
2023/10/04 05:25:14;;;;;;;8.23;1.67;;;12.70;99.90;;;;;;5064140;28;20293;-46
2023/10/04 05:27:40;;;;;;;6.37;1.80;;;12.70;99.90;;;;;;5078988;28;20277;-52
2023/10/04 05:30:13;;;;;;;10.90;2.57;;;12.70;99.90;;;;;;5085373;28;20197;-47
2023/10/04 05:32:40;;;;;;;5.60;1.70;;;12.60;99.90;;;;;;5084560;28;20205;-48
2023/10/04 05:35:12;;;;;;;8.83;2.63;;;12.60;99.90;;;;;;5076276;28;20494;-47
2023/10/04 05:37:39;;;;;;;9.17;2.17;;;12.60;99.90;;;;;;5082972;28;20190;-49
2023/10/04 05:40:10;;;;;;;4.77;1.63;;;12.60;99.90;;;;;;5077006;28;20182;-47
2023/10/04 05:42:38;;;;;;;4.80;1.60;;;12.60;99.90;;;;;;5081248;28;20213;-46
2023/10/04 05:45:06;;;;;;;9.83;1.80;;;12.50;99.90;;;;;;5081826;28;20269;-48
2023/10/04 05:47:35;;;;;;;8.13;2.20;;;12.50;99.90;;;;;;5075754;28;20193;-46
2023/10/04 05:50:05;;;;;;;6.97;1.67;;;12.50;99.90;;;;;;5086470;28;20227;-47
2023/10/04 05:52:32;;;;;;;10.03;2.17;;;12.50;99.90;;;;;;5082664;28;20650;-45
2023/10/04 05:54:59;;;;;;;11.57;2.50;;;12.50;99.90;;;;;;5080122;28;20210;-50
2023/10/04 05:57:26;;;;;;;11.33;2.37;;;12.60;99.90;;;;;;5077327;28;20193;-51
2023/10/04 05:59:53;;;;;;;6.63;1.43;;;12.60;99.90;;;;;;5075744;28;20244;-50
2023/10/04 06:02:22;;;;;;;5.33;1.73;;;12.60;99.90;;;;;;5074617;28;20264;-46
2023/10/04 06:04:51;;;;;;;7.03;1.90;;;12.60;99.90;;;;;;5083220;28;20194;-49
2023/10/04 06:07:18;;;;;;;9.00;2.20;;;12.70;99.90;;;;;;5076573;28;20897;-47
2023/10/04 06:09:45;;;;;;;6.80;1.90;;;12.70;99.90;;;;;;5084045;28;20218;-46
2023/10/04 06:12:12;;;;;;;6.20;1.63;;;12.70;99.90;;;;;;5075411;28;20293;-48
2023/10/04 06:14:39;;;;;;;4.67;1.47;;;12.70;99.90;;;;;;5092025;28;20201;-45
2023/10/04 06:17:06;;;;;;;8.77;1.90;;;12.70;99.90;;;;;;5075554;28;20933;-45
2023/10/04 06:19:33;;;;;;;11.53;2.30;;;12.70;99.90;;;;;;5071910;28;20222;-45
2023/10/04 06:22:02;;;;;;;10.00;1.83;;;12.70;99.90;;;;;;5080944;28;20194;-51
2023/10/04 06:24:28;;;;;;;7.03;2.00;;;12.70;99.90;;;;;;5083824;28;20194;-45
2023/10/04 06:26:55;;;;;;;4.70;1.77;;;12.70;99.90;;;;;;5073202;28;20921;-48
2023/10/04 06:29:22;;;;;;;6.13;1.70;;;12.70;99.90;;;;;;5081299;28;20249;-47
2023/10/04 06:31:49;;;;;;;7.77;2.20;;;12.80;99.90;;;;;;5078217;28;20761;-45
2023/10/04 06:34:16;;;;;;;6.57;2.30;;;12.80;99.90;;;;;;5072788;28;20205;-45
2023/10/04 06:36:44;;;;;;;9.57;2.20;;;12.80;99.90;;;;;;5082877;28;20198;-48
2023/10/04 06:39:12;;;;;;;9.57;2.27;;;12.70;99.90;;;;;;5089387;28;20210;-45
2023/10/04 06:41:39;;;;;;;8.87;2.63;;;12.70;99.90;;;;;;5077566;28;20660;-48
2023/10/04 06:44:07;;;;;;;6.13;2.10;;;12.80;99.90;;;;;;5078927;28;20884;-45
2023/10/04 06:46:35;;;;;;;5.00;1.93;;;12.80;99.90;;;;;;5085495;28;20217;-50
2023/10/04 06:49:02;;;;;;;5.30;1.70;;;12.80;99.90;;;;;;5079123;28;20221;-46
2023/10/04 06:51:30;;;;;;;8.50;1.77;;;12.80;99.90;;;;;;5077099;28;20205;-51
2023/10/04 06:53:58;;;;;;;9.63;2.53;;;12.80;99.90;;;;;;5078446;28;20194;-49
2023/10/04 06:56:27;;;;;;;4.43;2.13;;;12.80;99.90;;;;;;5079836;28;20762;-46
2023/10/04 06:58:54;;;;;;;7.43;1.93;;;12.80;99.90;;;;;;5068341;28;20249;-46
2023/10/04 07:01:21;;;;;;;8.80;2.30;;;12.80;99.90;;;;;;5083277;28;20588;-46
2023/10/04 07:03:48;;;;;;;4.53;1.63;;;12.80;99.90;;;;;;5072077;28;20263;-45
2023/10/04 07:06:15;;;;;;;8.13;1.73;;;12.90;99.90;;;;;;5073535;28;20600;-48
2023/10/04 07:08:41;;;;;;;6.60;2.17;;;12.90;99.90;;;;;;5078273;28;20246;-47
2023/10/04 07:11:08;;;;;;;6.03;2.30;;;12.90;99.90;;;;;;5077047;28;20198;-46
2023/10/04 07:13:36;;;;;;;9.17;2.37;;;12.90;99.90;;;;;;5078608;28;20194;-48
2023/10/04 07:16:03;;;;;;;9.73;2.00;;;12.90;99.90;;;;;;5076817;28;20291;-49
2023/10/04 07:18:31;;;;;;;10.30;2.00;;;12.90;99.90;;;;;;5071662;28;20229;-52
2023/10/04 07:20:59;;;;;;;10.37;1.93;;;12.90;99.90;;;;;;5065142;28;20209;-50
2023/10/04 07:23:27;;;;;;;10.70;2.00;;;12.90;99.90;;;;;;5073098;28;20288;-46
2023/10/04 07:25:54;;;;;;;11.70;2.33;;;13.00;99.90;;;;;;5084214;28;20687;-44
2023/10/04 07:28:24;;;;;;;5.17;2.40;;;13.00;99.90;;;;;;5075286;28;20210;-44
2023/10/04 07:30:54;;;;;;;5.73;2.33;;;13.10;99.90;;;;;;5076689;28;20755;-44
2023/10/04 07:33:21;;;;;;;7.37;2.20;;;13.20;99.90;;;;;;5075464;28;20190;-44
2023/10/04 07:35:48;;;;;;;7.23;2.23;;;13.20;99.90;;;;;;5081868;28;20611;-45
2023/10/04 07:38:15;;;;;;;5.80;1.70;;;13.20;99.90;;;;;;5068828;28;20752;-45
2023/10/04 07:40:42;;;;;;;7.50;1.87;;;13.30;99.90;;;;;;5079758;28;20190;-48
2023/10/04 07:43:09;;;;;;;6.10;1.97;;;13.30;99.90;;;;;;5076121;28;20209;-50
2023/10/04 07:45:36;;;;;;;8.23;2.20;;;13.30;99.90;;;;;;5077402;28;20235;-48
2023/10/04 07:48:06;;;;;;;9.83;2.20;;;13.30;99.90;;;;;;5074553;28;20226;-46
2023/10/04 07:50:34;;;;;;;13.27;1.90;;;13.40;99.90;;;;;;5082976;28;20461;-43
2023/10/04 07:53:04;;;;;;;8.07;2.40;;;13.40;99.90;;;;;;5070311;28;20297;-46
2023/10/04 07:55:33;;;;;;;12.40;2.17;;;13.40;99.90;;;;;;5079682;28;20217;-45
2023/10/04 07:58:03;;;;;;;8.67;2.17;;;13.40;99.90;;;;;;5074216;28;20953;-48
2023/10/04 08:00:30;;;;;;;7.20;1.90;;;13.40;99.90;;;;;;5081209;28;20204;-45
2023/10/04 08:02:57;;;;;;;7.07;1.83;;;13.50;99.90;;;;;;5069062;28;20636;-45
2023/10/04 08:05:27;;;;;;;7.27;2.33;;;13.50;99.90;;;;;;5076672;28;20215;-46
2023/10/04 08:07:55;;;;;;;8.60;2.03;;;13.50;99.90;;;;;;5079560;28;20217;-45
2023/10/04 08:10:25;;;;;;;9.30;2.33;;;13.50;99.90;;;;;;5079966;28;20212;-47
2023/10/04 08:12:53;;;;;;;7.53;1.70;;;13.50;99.90;;;;;;5074165;28;20233;-44
2023/10/04 08:15:21;;;;;;;13.30;2.53;;;13.60;99.90;;;;;;5064608;28;20198;-45
2023/10/04 08:17:49;;;;;;;6.47;2.00;;;13.60;99.90;;;;;;5079233;28;20350;-44
2023/10/04 08:20:16;;;;;;;6.60;2.20;;;13.70;99.90;;;;;;5068862;28;20287;-44
2023/10/04 08:22:45;;;;;;;5.40;2.57;;;13.80;99.90;;;;;;5082161;28;20201;-46
2023/10/04 08:25:16;;;;;;;14.80;2.87;;;14.00;99.90;;;;;;5066687;28;20219;-46
2023/10/04 08:27:43;;;;;;;9.43;2.43;;;14.00;99.90;;;;;;5080870;28;20293;-44
2023/10/04 08:30:12;;;;;;;6.90;1.90;;;14.10;99.90;;;;;;5074768;28;20382;-47
2023/10/04 08:32:40;;;;;;;6.40;2.20;;;14.20;99.90;;;;;;5071621;28;20208;-47
2023/10/04 08:35:21;;;;;;;13.60;2.40;;;14.30;99.90;;;;;;5077483;28;20270;-50
2023/10/04 08:37:50;;;;;;;7.73;2.10;;;14.30;99.90;;;;;;5074979;28;20220;-50
2023/10/04 08:40:18;;;;;;;8.97;2.53;;;14.40;99.90;;;;;;5063701;28;20719;-48
2023/10/04 08:42:45;;;;;;;6.97;1.57;;;14.40;99.90;;;;;;5076229;28;20210;-45
2023/10/04 08:45:13;;;;;;;9.13;2.37;;;14.50;99.90;;;;;;5072350;28;20224;-46
2023/10/04 08:47:40;;;;;;;7.97;2.63;;;14.50;99.90;;;;;;5072291;28;20202;-47
2023/10/04 08:50:15;;;;;;;4.90;1.93;;;14.60;99.90;;;;;;5079435;28;20757;-48
2023/10/04 08:52:44;;;;;;;7.33;2.07;;;14.60;99.90;;;;;;5074560;28;20197;-47
2023/10/04 08:55:17;;;;;;;11.23;2.20;;;14.70;99.90;;;;;;5066257;28;20255;-49
2023/10/04 08:57:45;;;;;;;8.77;2.63;;;14.70;99.90;;;;;;5079077;28;20603;-45
2023/10/04 09:00:14;;;;;;;11.63;1.73;;;14.80;99.90;;;;;;5075779;28;20196;-48
2023/10/04 09:02:45;;;;;;;9.80;2.13;;;14.80;99.90;;;;;;5078284;28;20649;-50
2023/10/04 09:05:14;;;;;;;10.53;2.70;;;15.00;99.90;;;;;;5076774;28;20233;-44
2023/10/04 09:07:43;;;;;;;8.83;2.20;;;15.00;99.90;;;;;;5075236;28;20252;-46
2023/10/04 09:10:15;;;;;;;6.90;1.93;;;;;;;;;;5064808;28;20222;-48
2023/10/04 09:12:44;;;;;;;9.77;2.43;;;15.10;99.90;;;;;;5065026;28;20306;-46
2023/10/04 09:15:13;;;;;;;10.33;2.57;;;15.10;99.90;;;;;;5080505;28;20194;-47
2023/10/04 09:17:46;;;;;;;6.13;2.40;;;15.20;99.90;;;;;;5087524;28;20186;-47
2023/10/04 09:20:15;;;;;;;5.97;1.90;;;15.30;99.90;;;;;;5076941;28;20197;-50
2023/10/04 09:22:42;;;;;;;8.50;2.40;;;15.30;99.90;;;;;;5082785;28;20213;-44
2023/10/04 09:25:10;;;;;;;7.30;2.07;;;15.40;99.90;;;;;;5088176;28;20243;-48
2023/10/04 09:27:38;;;;;;;10.87;2.30;;;15.40;99.90;;;;;;5063929;28;20194;-47
2023/10/04 09:30:21;;;;;;;3.63;1.83;;;15.50;99.90;;;;;;5080822;28;20700;-45
2023/10/04 09:32:49;;;;;;;10.70;2.03;;;15.50;99.90;;;;;;5081260;28;20190;-48
2023/10/04 09:35:18;;;;;;;7.10;2.20;;;15.50;99.90;;;;;;5078070;28;20205;-47
2023/10/04 09:37:45;;;;;;;9.40;2.53;;;15.60;99.90;;;;;;5077276;28;20221;-49
2023/10/04 09:40:15;;;;;;;5.43;1.63;;;15.60;99.90;;;;;;5083462;28;20182;-47
2023/10/04 09:42:47;;;;;;;4.90;1.90;;;15.70;99.90;;;;;;5065474;28;21128;-47
2023/10/04 09:45:16;;;;;;;5.60;1.93;;;15.80;99.90;;;;;;5069499;28;20206;-46
2023/10/04 09:47:43;;;;;;;7.57;2.47;;;15.90;99.90;;;;;;5078002;28;20203;-48
2023/10/04 09:50:12;;;;;;;5.83;1.93;;;15.90;99.90;;;;;;5074808;28;23101;-47
2023/10/04 09:52:39;;;;;;;6.57;1.90;;;16.00;99.90;;;;;;5083302;28;20284;-49
2023/10/04 09:55:08;;;;;;;5.13;1.60;;;16.00;99.90;;;;;;5076691;28;20194;-44
2023/10/04 09:57:37;;;;;;;5.67;1.87;;;16.10;99.90;;;;;;5087348;28;20194;-44
2023/10/04 10:00:07;;;;;;;7.87;2.17;;;16.10;99.90;;;;;;5061903;28;20262;-47
2023/10/04 10:02:37;;;;;;;10.53;1.80;;;16.10;99.90;;;;;;5075645;28;20734;-48
2023/10/04 10:05:08;;;;;;;6.03;2.23;;;16.10;99.90;;;;;;5074114;28;20210;-46
2023/10/04 10:07:37;;;;;;;8.57;2.40;;;16.20;99.90;;;;;;5084401;28;20208;-45
2023/10/04 10:10:10;;;;;;;14.50;2.57;;;16.20;99.90;;;;;;5076093;28;20363;-44
2023/10/04 10:12:37;;;;;;;10.97;2.57;;;16.20;99.90;;;;;;5081893;28;20205;-49
2023/10/04 10:15:07;;;;;;;6.27;2.00;;;16.20;99.90;;;;;;5062130;28;20898;-44
2023/10/04 10:17:35;;;;;;;12.70;2.20;;;16.30;99.90;;;;;;5079992;28;20202;-46
2023/10/04 10:20:05;;;;;;;5.97;2.13;;;16.40;99.90;;;;;;5075991;28;20227;-47
2023/10/04 10:22:32;;;;;;;8.30;2.43;;;16.30;99.90;;;;;;5084733;28;20201;-44
2023/10/04 10:25:14;;;;;;;5.50;2.00;;;16.30;99.90;;;;;;5076600;28;20189;-46
2023/10/04 10:27:43;;;;;;;6.83;2.23;;;16.40;99.90;;;;;;5079607;28;20194;-49
2023/10/04 10:30:12;;;;;;;7.33;2.67;;;16.40;99.90;;;;;;5063493;28;21067;-46
2023/10/04 10:32:50;;;;;;;5.33;2.10;;;16.50;99.90;;;;;;5084053;28;20214;-49
2023/10/04 10:35:59;;;;;;;9.37;2.20;;;16.60;99.90;;;;;;5081550;28;20204;-46
2023/10/04 10:38:30;;;;;;;7.43;2.10;;;16.60;99.90;;;;;;5074272;28;20298;-46
2023/10/04 10:40:57;;;;;;;6.53;2.03;;;16.60;99.90;;;;;;5065456;28;20954;-45
2023/10/04 10:43:24;;;;;;;8.90;2.73;;;16.60;99.90;;;;;;5075994;28;20206;-45
2023/10/04 10:45:51;;;;;;;6.87;1.90;;;16.70;99.90;;;;;;5063080;28;20281;-50
2023/10/04 10:48:31;;;;;;;4.57;2.60;;;16.60;99.90;;;;;;5083488;28;20294;-45
2023/10/04 10:50:59;;;;;;;15.90;2.90;;;16.70;99.90;;;;;;5070135;28;20210;-44
2023/10/04 10:53:27;;;;;;;12.37;2.63;;;16.70;99.90;;;;;;5076645;28;20202;-46
2023/10/04 10:55:54;;;;;;;5.93;2.30;;;16.70;99.90;;;;;;5071264;28;20189;-45
2023/10/04 10:58:20;;;;;;;10.03;3.23;;;16.60;99.90;;;;;;5076751;28;20226;-47
2023/10/04 11:00:47;;;;;;;5.73;2.67;;;16.60;99.90;;;;;;5075813;28;20239;-47
2023/10/04 11:03:14;;;;;;;9.20;2.73;;;16.60;99.90;;;;;;5082569;28;20695;-47
2023/10/04 11:05:41;;;;;;;4.07;1.80;;;16.70;99.90;;;;;;5078005;28;20248;-46
2023/10/04 11:08:12;;;;;;;8.13;2.70;;;16.60;99.90;;;;;;5059646;28;20234;-44
2023/10/04 11:10:40;;;;;;;8.17;2.70;;;16.60;99.90;;;;;;5080917;28;20240;-48
2023/10/04 11:13:09;;;;;;;6.80;2.43;;;16.60;99.90;;;;;;5076602;28;20193;-46
2023/10/04 11:15:36;;;;;;;7.47;2.77;;;16.50;99.90;;;;;;5086984;28;20220;-48
2023/10/04 11:18:05;;;;;;;6.83;2.20;;;16.40;99.90;;;;;;5062670;28;20925;-45
2023/10/04 11:20:36;;;;;;;6.67;1.97;;;16.40;99.90;;;;;;5082982;28;20269;-44
2023/10/04 11:23:03;;;;;;;9.83;2.67;;;16.50;99.90;;;;;;5062617;28;23015;-44
2023/10/04 11:25:31;;;;;;;7.80;2.60;;;16.40;99.90;;;;;;5082831;28;20190;-48
2023/10/04 11:27:58;;;;;;;11.17;3.30;;;16.50;99.90;;;;;;5075408;28;20217;-45
2023/10/04 11:30:27;;;;;;;9.07;2.67;;;16.50;99.90;;;;;;5076134;28;20284;-46
2023/10/04 11:32:54;;;;;;;9.87;3.07;;;16.60;99.90;;;;;;5062539;28;20193;-51
2023/10/04 11:35:21;;;;;;;7.40;2.60;;;16.80;99.90;;;;;;5081506;28;20198;-49
2023/10/04 11:37:49;;;;;;;9.43;3.93;;;16.90;99.90;;;;;;5068055;28;20218;-47
2023/10/04 11:40:19;;;;;;;8.90;2.60;;;17.10;99.90;;;;;;5063527;28;20199;-45
2023/10/04 11:42:58;;;;;;;10.63;3.20;;;17.20;99.90;;;;;;5071510;28;20221;-49
2023/10/04 11:45:26;;;;;;;12.20;3.13;;;17.20;99.90;;;;;;5079274;28;20251;-47
2023/10/04 11:48:00;;;;;;;10.13;2.70;;;17.20;99.90;;;;;;5076640;28;20240;-46
2023/10/04 11:50:44;;;;;;;9.33;2.83;;;17.10;99.90;;;;;;5052087;28;20209;-44
2023/10/04 11:53:12;;;;;;;5.33;3.03;;;17.10;99.90;;;;;;5073378;28;20259;-46
2023/10/04 11:55:41;;;;;;;6.23;2.60;;;17.20;99.90;;;;;;5069627;28;20212;-47
2023/10/04 11:58:10;;;;;;;8.57;3.03;;;17.30;99.90;;;;;;5081826;28;20222;-49
2023/10/04 12:00:37;;;;;;;11.43;3.07;;;17.30;99.90;;;;;;5072297;28;20236;-48
2023/10/04 12:03:06;;;;;;;6.50;2.70;;;17.40;99.90;;;;;;5070642;28;20262;-49
2023/10/04 12:05:32;;;;;;;6.97;2.70;;;17.50;99.90;;;;;;5053845;28;20202;-47
2023/10/04 12:08:01;;;;;;;7.60;3.13;;;17.50;99.90;;;;;;5072353;28;20378;-49
2023/10/04 12:10:28;;;;;;;8.13;2.63;;;17.50;99.90;;;;;;5067710;28;20209;-49
2023/10/04 12:12:57;;;;;;;8.87;3.37;;;17.60;99.90;;;;;;5062464;28;20190;-48
2023/10/04 12:15:25;;;;;;;8.07;2.60;;;17.70;99.90;;;;;;5072718;28;20255;-46
2023/10/04 12:17:52;;;;;;;7.07;2.80;;;17.70;99.90;;;;;;5083676;28;20206;-47
2023/10/04 12:20:20;;;;;;;10.80;3.67;;;17.70;99.90;;;;;;5036546;28;20255;-48
2023/10/04 12:22:48;;;;;;;8.37;2.90;;;17.70;99.90;;;;;;5086145;28;20193;-46
2023/10/04 12:25:15;;;;;;;8.23;2.93;;;17.60;99.90;;;;;;5069583;28;20198;-46
2023/10/04 12:27:43;;;;;;;9.20;3.13;;;17.60;99.90;;;;;;5066761;28;20842;-47
2023/10/04 12:30:14;;;;;;;7.90;3.80;;;17.60;99.90;;;;;;5080344;28;20206;-46
2023/10/04 12:32:42;;;;;;;5.67;3.30;;;17.70;99.90;;;;;;5066855;28;20232;-48
2023/10/04 12:35:13;;;;;;;6.83;3.23;;;17.80;99.90;;;;;;5083225;28;20209;-46
2023/10/04 12:37:40;;;;;;;8.77;3.63;;;17.90;99.90;;;;;;5057447;28;20206;-49
2023/10/04 12:40:17;;;;;;;10.67;3.40;;;17.90;99.90;;;;;;5075716;28;20604;-52
2023/10/04 12:42:44;;;;;;;9.50;3.27;;;17.90;99.90;;;;;;5077154;28;20233;-48
2023/10/04 12:45:12;;;;;;;6.33;3.43;;;17.90;99.90;;;;;;5089535;28;20197;-46
2023/10/04 12:47:41;;;;;;;9.67;3.50;;;17.80;99.90;;;;;;5073225;28;20316;-49
2023/10/04 12:50:13;;;;;;;8.53;3.00;;;17.70;99.90;;;;;;5073715;28;20197;-47
2023/10/04 12:52:41;;;;;;;8.40;3.70;;;17.80;99.90;;;;;;5053712;28;20189;-48
2023/10/04 12:55:09;;;;;;;9.10;3.37;;;17.70;99.90;;;;;;5085296;28;20259;-48